• Join FlightAware (Why Join?)
  • Login
  • US Flag 
07:57PM EDT


 

Airport Tracker/Info


-or-


 

Live Flight TrackerFlight Track Log ✈ AWE3327 ✈ 14-Apr-2014 ✈ KCLT - KIND

Flight Track Log - Related Links

Times and Time Zones

All times are in EDT time to prevent confusion due to time zone crossing. See the AWE3327 flight status page for this flight to view local times or setup timezone preferences in your user account.

Time Position Orientation Groundspeed Altitude Reporting Facility
EDT Latitude Longitude Course Direction KTS MPH feet Rate Location/Type
10:20PM 35.1914 -80.9533 318° Northwest 145 167 1,600  Level Atlanta Center
10:21PM 35.1608 -80.9850 220° Southwest 181 208 3,000 2,100 Climbing Atlanta Center
10:23PM 35.5869 -81.3585 318° Northwest  Level Estimated
10:23PM 35.1311 -81.0572 243° Southwest 211 243 6,300  Level Atlanta Center
10:24PM 35.6799 -81.4615 318° Northwest  Level Estimated
10:24PM 35.1683 -81.1219 305° West 223 257 9,200  Level Atlanta Center
10:25PM 35.7729 -81.5647 318° Northwest  Level Estimated
10:25PM 35.2511 -81.1014 11° North 201 231 11,500  Level Atlanta Center
10:26PM 35.8658 -81.6681 318° Northwest  Level Estimated
10:26PM 35.3408 -81.0931 North 259 298 13,800  Level Atlanta Center
10:27PM 35.4278 -81.1536 330° Northwest 302 348 15,200 1,800 Climbing Atlanta Center
10:28PM 35.5208 -81.2117 333° Northwest 346 398 17,500 2,160 Climbing Atlanta Center
10:29PM 35.6181 -81.2694 334° Northwest 362 417 19,600 2,100 Climbing Atlanta Center
10:30PM 35.7322 -81.3322 336° Northwest 392 451 21,700 1,800 Climbing Atlanta Center
10:31PM 35.8358 -81.3903 336° Northwest 397 457 23,300 1,500 Climbing Atlanta Center
10:32PM 35.9414 -81.4508 335° Northwest 405 466 24,800 840 Climbing Atlanta Center
10:33PM 36.0225 -81.5511 315° West 405 466 25,000 60 Climbing Atlanta Center
10:34PM 36.1081 -81.6536 316° Northwest 411 473 25,000 540 Level Atlanta Center
10:35PM 36.1894 -81.7644 312° West 431 496 26,100 1,440 Climbing Atlanta Center
10:36PM 36.2728 -81.8728 314° West 436 502 27,900 1,800 Climbing Atlanta Center
10:37PM 36.3539 -81.9764 314° West 436 502 29,800 1,560 Climbing Atlanta Center
10:38PM 36.4686 -82.1242 314° West 403 464 32,000 840 Climbing Indianapolis Center
10:39PM 36.5472 -82.2264 314° West 402 463 32,000  Level Indianapolis Center
10:40PM 36.6300 -82.3336 314° West 421 484 32,000  Level Indianapolis Center
10:41PM 36.7108 -82.4392 314° West 424 488 32,000  Level Indianapolis Center
10:42PM 36.7922 -82.5464 313° West 424 488 32,000  Level Indianapolis Center
10:43PM 36.8872 -82.6717 313° West 424 488 32,000  Level Indianapolis Center
10:44PM 36.9686 -82.7800 313° West 429 494 32,000  Level Indianapolis Center
10:45PM 37.0494 -82.8881 313° West 433 498 32,000  Level Indianapolis Center
10:46PM 37.1311 -82.9969 313° West 433 498 32,000  Level Indianapolis Center
10:47PM 37.2128 -83.1072 313° West 433 498 32,000  Level Indianapolis Center
10:48PM 37.2947 -83.2181 313° West 433 498 32,000  Level Indianapolis Center
10:49PM 37.3914 -83.3478 313° West 433 498 32,000  Level Indianapolis Center
10:50PM 37.4739 -83.4606 313° West 433 498 32,000  Level Indianapolis Center
10:51PM 37.5575 -83.5722 313° West 434 499 32,000  Level Indianapolis Center
10:52PM 37.6397 -83.6861 312° West 435 501 32,000  Level Indianapolis Center
10:53PM 37.7214 -83.7978 313° West 435 501 32,000  Level Indianapolis Center
10:55PM 37.8022 -83.9081 313° West 433 498 32,000  Level Indianapolis Center
10:56PM 37.8819 -84.0172 313° West 426 490 32,000  Level Indianapolis Center
10:57PM 37.9617 -84.1267 313° West 424 488 32,000 -120 Level Indianapolis Center
10:58PM 38.0406 -84.2367 312° West 423 487 31,800 -660 Descending Indianapolis Center
10:59PM 38.1203 -84.3458 313° West 423 487 30,700 -1,260 Descending Indianapolis Center
11:00PM 38.2017 -84.4606 312° West 432 497 29,300 -1,560 Descending Indianapolis Center
11:01PM 38.2994 -84.5983 312° West 445 512 27,600 -1,560 Descending Indianapolis Center
11:02PM 38.3800 -84.7153 311° West 444 511 26,200 -1,380 Descending Indianapolis Center
11:03PM 38.4619 -84.8278 313° West 435 501 24,800 -1,380 Descending Indianapolis Center
11:04PM 38.5414 -84.9397 312° West 429 494 23,400 -1,320 Descending Indianapolis Center
11:05PM 38.6197 -85.0494 312° West 423 487 22,100 -1,320 Descending Indianapolis Center
11:06PM 38.6897 -85.1525 311° West 419 482 20,800 -1,260 Descending Indianapolis Center
11:07PM 38.7606 -85.2533 312° West 391 450 19,600 -1,140 Descending Indianapolis Center
11:08PM 38.8242 -85.3458 311° West 355 409 18,600 -1,200 Descending Indianapolis Center
11:09PM 38.8975 -85.4506 312° West 336 387 17,200 -1,260 Descending Indianapolis Center
11:10PM 38.9608 -85.5422 312° West 337 388 16,100 -1,140 Descending Indianapolis Center
11:11PM 39.0208 -85.6317 311° West 336 387 15,000 -1,440 Descending Indianapolis Center
11:12PM 39.0911 -85.7183 316° Northwest 346 398 13,200 -1,920 Descending Indianapolis Center
11:13PM 39.1931 -85.7458 348° North 369 425 11,100 -1,620 Descending Indianapolis Center
11:14PM 39.2936 -85.7656 351° North 371 427 10,000 -600 Descending Indianapolis Center
11:15PM 39.3736 -85.8408 324° Northwest 362 417 10,000  Level Indianapolis Center
11:16PM 39.4458 -85.9267 317° Northwest 356 410 10,000 -360 Level Indianapolis Center
11:17PM 39.5106 -86.0036 317° Northwest 328 377 9,300 -1,080 Descending Indianapolis Center
11:18PM 39.5694 -86.0742 317° Northwest 296 341 7,900 -1,140 Descending Indianapolis Center
11:19PM 39.6183 -86.1408 314° West 272 313 7,000 -480 Descending Indianapolis Center
11:20PM 39.6406 -86.2450 286° West 250 288 7,000 -540 Level Indianapolis Center
11:21PM 39.5928 -86.3128 228° Southwest 258 297 6,000 -1,020 Descending Indianapolis Center
11:22PM 39.5386 -86.3708 220° Southwest 256 295 5,000 -540 Descending Indianapolis Center
11:23PM 39.4972 -86.4219 224° Southwest 216 249 5,000  Level Indianapolis Center
11:24PM 39.5075 -86.4767 284° West 197 227 5,000 -420 Level Indianapolis Center
11:25PM 39.5511 -86.4781 359° North 182 209 4,200 -840 Descending Indianapolis Center
11:26PM 39.5886 -86.4464 33° Northeast 171 197 3,400 -600 Descending Indianapolis Center
11:27PM 39.6183 -86.4083 45° Northeast 157 181 3,100 -600 Descending Indianapolis Center
11:28PM 39.6483 -86.3703 44° Northeast 155 178 2,300 -720 Descending Indianapolis Center
11:29PM 39.6736 -86.3392 43° Northeast 142 163 1,700 -660 Descending Indianapolis Center
11:30PM 39.6978 -86.3083 44° Northeast 130 150 1,000 -480 Descending Indianapolis Center
11:31PM 39.7233 -86.2747 45° Northeast 127 146 800 -240 Descending Indianapolis Center